sensor_id;sensor_type;location;lat;lon;timestamp;pressure;altitude;pressure_sealevel;temperature;humidity
15487;BME280;7845;53.698;10.078;2022-11-12T00:02:14;102685.53;;;13.10;100.00
15487;BME280;7845;53.698;10.078;2022-11-12T00:04:39;102685.50;;;13.08;100.00
15487;BME280;7845;53.698;10.078;2022-11-12T00:07:05;102673.25;;;13.07;100.00
15487;BME280;7845;53.698;10.078;2022-11-12T00:09:30;102674.25;;;13.14;100.00
15487;BME280;7845;53.698;10.078;2022-11-12T00:11:55;102670.69;;;13.12;100.00
15487;BME280;7845;53.698;10.078;2022-11-12T00:14:21;102667.22;;;13.13;100.00
15487;BME280;7845;53.698;10.078;2022-11-12T00:16:46;102676.78;;;13.09;100.00
15487;BME280;7845;53.698;10.078;2022-11-12T00:19:11;102668.03;;;13.09;100.00
15487;BME280;7845;53.698;10.078;2022-11-12T00:21:37;102672.34;;;13.07;100.00
15487;BME280;7845;53.698;10.078;2022-11-12T00:24:02;102682.81;;;13.04;100.00
15487;BME280;7845;53.698;10.078;2022-11-12T00:26:28;102671.44;;;13.02;100.00
15487;BME280;7845;53.698;10.078;2022-11-12T00:28:54;102673.16;;;13.01;100.00
15487;BME280;7845;53.698;10.078;2022-11-12T00:31:19;102674.94;;;13.04;100.00
15487;BME280;7845;53.698;10.078;2022-11-12T00:33:45;102667.97;;;13.06;100.00
15487;BME280;7845;53.698;10.078;2022-11-12T00:36:10;102671.44;;;13.02;100.00
15487;BME280;7845;53.698;10.078;2022-11-12T00:38:36;102674.06;;;13.03;100.00
15487;BME280;7845;53.698;10.078;2022-11-12T00:41:03;102677.50;;;12.99;100.00
15487;BME280;7845;53.698;10.078;2022-11-12T00:43:29;102676.63;;;12.99;100.00
15487;BME280;7845;53.698;10.078;2022-11-12T00:45:54;102676.63;;;12.99;100.00
15487;BME280;7845;53.698;10.078;2022-11-12T00:48:19;102676.59;;;12.97;100.00
15487;BME280;7845;53.698;10.078;2022-11-12T00:50:45;102671.34;;;12.97;100.00
15487;BME280;7845;53.698;10.078;2022-11-12T00:53:11;102673.09;;;12.97;100.00
15487;BME280;7845;53.698;10.078;2022-11-12T00:55:36;102676.59;;;12.97;100.00
15487;BME280;7845;53.698;10.078;2022-11-12T00:58:01;102679.22;;;12.97;100.00
15487;BME280;7845;53.698;10.078;2022-11-12T01:00:27;102685.34;;;12.98;100.00
15487;BME280;7845;53.698;10.078;2022-11-12T01:02:53;102682.66;;;12.92;100.00
15487;BME280;7845;53.698;10.078;2022-11-12T01:05:20;102674.69;;;12.86;100.00
15487;BME280;7845;53.698;10.078;2022-11-12T01:07:46;102686.16;;;12.92;100.00
15487;BME280;7845;53.698;10.078;2022-11-12T01:10:12;102680.06;;;12.96;100.00
15487;BME280;7845;53.698;10.078;2022-11-12T01:12:38;102668.69;;;12.94;100.00
15487;BME280;7845;53.698;10.078;2022-11-12T01:15:04;102687.88;;;12.90;100.00
15487;BME280;7845;53.698;10.078;2022-11-12T01:17:31;102690.56;;;12.96;100.00
15487;BME280;7845;53.698;10.078;2022-11-12T01:19:56;102686.19;;;12.97;100.00
15487;BME280;7845;53.698;10.078;2022-11-12T01:22:22;102683.56;;;12.97;100.00
15487;BME280;7845;53.698;10.078;2022-11-12T01:24:47;102680.16;;;13.01;100.00
15487;BME280;7845;53.698;10.078;2022-11-12T01:27:13;102679.25;;;12.99;100.00
15487;BME280;7845;53.698;10.078;2022-11-12T01:29:38;102686.16;;;12.94;100.00
15487;BME280;7845;53.698;10.078;2022-11-12T01:32:05;102687.84;;;12.89;100.00
15487;BME280;7845;53.698;10.078;2022-11-12T01:34:30;102680.03;;;12.92;100.00
15487;BME280;7845;53.698;10.078;2022-11-12T01:36:56;102681.81;;;12.94;100.00
15487;BME280;7845;53.698;10.078;2022-11-12T01:39:21;102682.59;;;12.89;100.00
15487;BME280;7845;53.698;10.078;2022-11-12T01:41:46;102687.00;;;12.90;100.00
15487;BME280;7845;53.698;10.078;2022-11-12T01:44:20;102679.94;;;12.86;100.00
15487;BME280;7845;53.698;10.078;2022-11-12T01:47:22;102677.28;;;12.83;100.00
15487;BME280;7845;53.698;10.078;2022-11-12T01:49:55;102687.72;;;12.80;100.00
15487;BME280;7845;53.698;10.078;2022-11-12T01:52:40;102692.97;;;12.78;100.00
15487;BME280;7845;53.698;10.078;2022-11-12T01:55:10;102692.91;;;12.76;100.00
15487;BME280;7845;53.698;10.078;2022-11-12T01:57:45;102693.75;;;12.75;100.00
15487;BME280;7845;53.698;10.078;2022-11-12T02:00:14;102700.69;;;12.70;100.00
15487;BME280;7845;53.698;10.078;2022-11-12T02:02:42;102690.25;;;12.72;100.00
15487;BME280;7845;53.698;10.078;2022-11-12T02:05:10;102696.34;;;12.72;100.00
15487;BME280;7845;53.698;10.078;2022-11-12T02:07:38;102693.75;;;12.74;100.00
15487;BME280;7845;53.698;10.078;2022-11-12T02:10:05;102688.53;;;12.75;100.00
15487;BME280;7845;53.698;10.078;2022-11-12T02:12:32;102686.84;;;12.79;100.00
15487;BME280;7845;53.698;10.078;2022-11-12T02:15:16;102686.88;;;12.82;100.00
15487;BME280;7845;53.698;10.078;2022-11-12T02:17:42;102688.66;;;12.85;100.00
15487;BME280;7845;53.698;10.078;2022-11-12T02:20:09;102678.16;;;12.85;100.00
15487;BME280;7845;53.698;10.078;2022-11-12T02:22:35;102669.47;;;12.84;100.00
15487;BME280;7845;53.698;10.078;2022-11-12T02:25:00;102669.47;;;12.84;100.00
15487;BME280;7845;53.698;10.078;2022-11-12T02:27:26;102673.78;;;12.81;100.00
15487;BME280;7845;53.698;10.078;2022-11-12T02:29:52;102679.84;;;12.78;100.00
15487;BME280;7845;53.698;10.078;2022-11-12T02:32:17;102677.16;;;12.72;100.00
15487;BME280;7845;53.698;10.078;2022-11-12T02:34:44;102670.06;;;12.66;100.00
15487;BME280;7845;53.698;10.078;2022-11-12T02:37:10;102690.03;;;12.57;100.00
15487;BME280;7845;53.698;10.078;2022-11-12T02:39:35;102675.16;;;12.56;100.00
15487;BME280;7845;53.698;10.078;2022-11-12T02:42:01;102673.34;;;12.52;100.00
15487;BME280;7845;53.698;10.078;2022-11-12T02:44:26;102676.75;;;12.46;100.00
15487;BME280;7845;53.698;10.078;2022-11-12T02:46:52;102678.47;;;12.44;100.00
15487;BME280;7845;53.698;10.078;2022-11-12T02:49:17;102686.34;;;12.44;100.00
15487;BME280;7845;53.698;10.078;2022-11-12T02:51:42;102682.88;;;12.45;100.00
15487;BME280;7845;53.698;10.078;2022-11-12T02:54:10;102677.53;;;12.41;100.00
15487;BME280;7845;53.698;10.078;2022-11-12T02:56:35;102666.97;;;12.35;100.00
15487;BME280;7845;53.698;10.078;2022-11-12T02:59:00;102686.94;;;12.28;100.00
15487;BME280;7845;53.698;10.078;2022-11-12T03:01:26;102697.22;;;12.16;100.00
15487;BME280;7845;53.698;10.078;2022-11-12T03:03:52;102692.75;;;12.09;100.00
15487;BME280;7845;53.698;10.078;2022-11-12T03:06:17;102695.25;;;12.04;100.00
15487;BME280;7845;53.698;10.078;2022-11-12T03:08:43;102687.34;;;12.00;100.00
15487;BME280;7845;53.698;10.078;2022-11-12T03:11:10;102691.75;;;12.02;100.00
15487;BME280;7845;53.698;10.078;2022-11-12T03:13:36;102696.81;;;11.93;100.00
15487;BME280;7845;53.698;10.078;2022-11-12T03:16:02;102691.47;;;11.87;100.00
15487;BME280;7845;53.698;10.078;2022-11-12T03:18:27;102694.00;;;11.81;100.00
15487;BME280;7845;53.698;10.078;2022-11-12T03:20:53;102694.81;;;11.79;100.00
15487;BME280;7845;53.698;10.078;2022-11-12T03:23:18;102686.91;;;11.76;100.00
15487;BME280;7845;53.698;10.078;2022-11-12T03:25:43;102695.59;;;11.73;100.00
15487;BME280;7845;53.698;10.078;2022-11-12T03:28:11;102693.81;;;11.71;100.00
15487;BME280;7845;53.698;10.078;2022-11-12T03:30:38;102712.81;;;11.65;100.00
15487;BME280;7845;53.698;10.078;2022-11-12T03:33:05;102709.31;;;11.61;100.00
15487;BME280;7845;53.698;10.078;2022-11-12T03:35:31;102690.81;;;11.54;100.00
15487;BME280;7845;53.698;10.078;2022-11-12T03:37:57;102688.94;;;11.47;100.00
15487;BME280;7845;53.698;10.078;2022-11-12T03:40:23;102687.97;;;11.42;100.00
15487;BME280;7845;53.698;10.078;2022-11-12T03:42:50;102702.72;;;11.38;100.00
15487;BME280;7845;53.698;10.078;2022-11-12T03:45:17;102716.63;;;11.36;100.00
15487;BME280;7845;53.698;10.078;2022-11-12T03:47:46;102696.56;;;11.35;100.00
15487;BME280;7845;53.698;10.078;2022-11-12T03:50:12;102707.88;;;11.34;100.00
15487;BME280;7845;53.698;10.078;2022-11-12T03:52:43;102708.72;;;11.33;100.00
15487;BME280;7845;53.698;10.078;2022-11-12T03:55:09;102711.25;;;11.30;100.00
15487;BME280;7845;53.698;10.078;2022-11-12T03:57:34;102710.34;;;11.28;100.00
15487;BME280;7845;53.698;10.078;2022-11-12T03:59:59;102717.28;;;11.26;100.00
15487;BME280;7845;53.698;10.078;2022-11-12T04:02:25;102712.84;;;11.22;100.00
15487;BME280;7845;53.698;10.078;2022-11-12T04:04:53;102713.66;;;11.19;100.00
15487;BME280;7845;53.698;10.078;2022-11-12T04:07:37;102725.72;;;11.13;100.00
15487;BME280;7845;53.698;10.078;2022-11-12T04:10:21;102702.19;;;11.13;100.00
15487;BME280;7845;53.698;10.078;2022-11-12T04:12:46;102707.44;;;11.14;100.00
15487;BME280;7845;53.698;10.078;2022-11-12T04:15:30;102716.16;;;11.13;100.00
15487;BME280;7845;53.698;10.078;2022-11-12T04:17:56;102727.44;;;11.10;100.00
15487;BME280;7845;53.698;10.078;2022-11-12T04:20:40;102715.91;;;11.02;100.00
15487;BME280;7845;53.698;10.078;2022-11-12T04:23:24;102735.88;;;10.99;100.00
15487;BME280;7845;53.698;10.078;2022-11-12T04:25:49;102711.44;;;10.97;100.00
15487;BME280;7845;53.698;10.078;2022-11-12T04:28:34;102718.44;;;10.99;100.00
15487;BME280;7845;53.698;10.078;2022-11-12T04:30:59;102715.88;;;11.01;100.00
15487;BME280;7845;53.698;10.078;2022-11-12T04:33:26;102722.28;;;11.15;100.00
15487;BME280;7845;53.698;10.078;2022-11-12T04:35:51;102718.72;;;11.11;100.00
15487;BME280;7845;53.698;10.078;2022-11-12T04:38:16;102722.91;;;11.03;100.00
15487;BME280;7845;53.698;10.078;2022-11-12T04:40:42;102729.78;;;10.98;100.00
15487;BME280;7845;53.698;10.078;2022-11-12T04:43:36;102718.25;;;10.90;100.00
15487;BME280;7845;53.698;10.078;2022-11-12T04:46:20;102732.84;;;10.81;100.00
15487;BME280;7845;53.698;10.078;2022-11-12T04:48:46;102721.47;;;10.79;100.00
15487;BME280;7845;53.698;10.078;2022-11-12T04:51:12;102723.03;;;10.71;100.00
15487;BME280;7845;53.698;10.078;2022-11-12T04:53:56;102747.81;;;10.52;100.00
15487;BME280;7845;53.698;10.078;2022-11-12T04:56:22;102739.97;;;10.50;100.00
15487;BME280;7845;53.698;10.078;2022-11-12T04:58:47;102737.28;;;10.47;100.00
15487;BME280;7845;53.698;10.078;2022-11-12T05:01:12;102736.28;;;10.42;100.00
15487;BME280;7845;53.698;10.078;2022-11-12T05:03:38;102730.94;;;10.38;100.00
15487;BME280;7845;53.698;10.078;2022-11-12T05:06:05;102733.50;;;10.35;100.00
15487;BME280;7845;53.698;10.078;2022-11-12T05:08:49;102727.28;;;10.30;100.00
15487;BME280;7845;53.698;10.078;2022-11-12T05:11:15;102719.41;;;10.28;100.00
15487;BME280;7845;53.698;10.078;2022-11-12T05:13:40;102747.66;;;10.12;100.00
15487;BME280;7845;53.698;10.078;2022-11-12T05:16:05;102751.81;;;10.05;100.00
15487;BME280;7845;53.698;10.078;2022-11-12T05:18:31;102731.03;;;10.08;100.00
15487;BME280;7845;53.698;10.078;2022-11-12T05:20:56;102748.25;;;10.01;100.00
15487;BME280;7845;53.698;10.078;2022-11-12T05:23:21;102748.94;;;9.94;100.00
15487;BME280;7845;53.698;10.078;2022-11-12T05:25:47;102742.94;;;9.97;100.00
15487;BME280;7845;53.698;10.078;2022-11-12T05:28:13;102743.75;;;9.96;100.00
15487;BME280;7845;53.698;10.078;2022-11-12T05:30:39;102734.53;;;10.09;100.00
15487;BME280;7845;53.698;10.078;2022-11-12T05:33:04;102741.50;;;10.10;100.00
15487;BME280;7845;53.698;10.078;2022-11-12T05:35:29;102744.91;;;10.07;100.00
15487;BME280;7845;53.698;10.078;2022-11-12T05:37:54;102751.94;;;10.10;100.00
15487;BME280;7845;53.698;10.078;2022-11-12T05:40:20;102747.59;;;10.10;100.00
15487;BME280;7845;53.698;10.078;2022-11-12T05:42:45;102739.66;;;10.06;100.00
15487;BME280;7845;53.698;10.078;2022-11-12T05:45:11;102728.28;;;10.03;100.00
15487;BME280;7845;53.698;10.078;2022-11-12T05:47:37;102739.44;;;9.98;100.00
15487;BME280;7845;53.698;10.078;2022-11-12T05:50:02;102747.19;;;9.95;100.00
15487;BME280;7845;53.698;10.078;2022-11-12T05:52:27;102750.84;;;10.00;100.00
15487;BME280;7845;53.698;10.078;2022-11-12T05:54:53;102750.63;;;9.92;100.00
15487;BME280;7845;53.698;10.078;2022-11-12T05:57:18;102731.69;;;9.99;100.00
15487;BME280;7845;53.698;10.078;2022-11-12T05:59:43;102746.25;;;9.91;100.00
15487;BME280;7845;53.698;10.078;2022-11-12T06:02:09;102754.34;;;9.69;100.00
15487;BME280;7845;53.698;10.078;2022-11-12T06:04:34;102756.13;;;9.72;100.00
15487;BME280;7845;53.698;10.078;2022-11-12T06:06:59;102749.03;;;9.66;100.00
15487;BME280;7845;53.698;10.078;2022-11-12T06:09:27;102746.44;;;9.66;100.00
15487;BME280;7845;53.698;10.078;2022-11-12T06:11:52;102758.38;;;9.58;100.00
15487;BME280;7845;53.698;10.078;2022-11-12T06:14:17;102772.78;;;9.45;100.00
15487;BME280;7845;53.698;10.078;2022-11-12T06:16:43;102757.25;;;9.50;100.00
15487;BME280;7845;53.698;10.078;2022-11-12T06:19:08;102744.28;;;9.52;100.00
15487;BME280;7845;53.698;10.078;2022-11-12T06:21:33;102750.31;;;9.51;100.00
15487;BME280;7845;53.698;10.078;2022-11-12T06:24:00;102768.34;;;9.43;100.00
15487;BME280;7845;53.698;10.078;2022-11-12T06:26:27;102767.56;;;9.45;100.00
15487;BME280;7845;53.698;10.078;2022-11-12T06:28:54;102759.75;;;9.45;100.00
15487;BME280;7845;53.698;10.078;2022-11-12T06:31:20;102769.44;;;9.50;100.00
15487;BME280;7845;53.698;10.078;2022-11-12T06:33:46;102764.97;;;9.47;100.00
15487;BME280;7845;53.698;10.078;2022-11-12T06:36:14;102755.44;;;9.48;100.00
15487;BME280;7845;53.698;10.078;2022-11-12T06:38:40;102768.72;;;9.55;100.00
15487;BME280;7845;53.698;10.078;2022-11-12T06:41:08;102777.06;;;9.43;100.00
15487;BME280;7845;53.698;10.078;2022-11-12T06:43:34;102776.66;;;9.30;100.00
15487;BME280;7845;53.698;10.078;2022-11-12T06:46:05;102766.28;;;9.31;100.00
15487;BME280;7845;53.698;10.078;2022-11-12T06:48:31;102758.47;;;9.31;100.00
15487;BME280;7845;53.698;10.078;2022-11-12T06:50:57;102765.56;;;9.37;100.00
15487;BME280;7845;53.698;10.078;2022-11-12T06:53:24;102771.75;;;9.40;100.00
15487;BME280;7845;53.698;10.078;2022-11-12T06:55:50;102784.72;;;9.37;100.00
15487;BME280;7845;53.698;10.078;2022-11-12T06:58:16;102790.41;;;9.26;100.00
15487;BME280;7845;53.698;10.078;2022-11-12T07:00:41;102790.38;;;9.24;100.00
15487;BME280;7845;53.698;10.078;2022-11-12T07:03:08;102786.19;;;9.29;100.00
15487;BME280;7845;53.698;10.078;2022-11-12T07:05:37;102785.44;;;9.33;100.00
15487;BME280;7845;53.698;10.078;2022-11-12T07:08:04;102803.53;;;9.29;100.00
15487;BME280;7845;53.698;10.078;2022-11-12T07:10:29;102797.38;;;9.25;100.00
15487;BME280;7845;53.698;10.078;2022-11-12T07:12:55;102781.75;;;9.25;100.00
15487;BME280;7845;53.698;10.078;2022-11-12T07:15:20;102791.97;;;9.19;100.00
15487;BME280;7845;53.698;10.078;2022-11-12T07:17:45;102794.59;;;9.21;100.00
15487;BME280;7845;53.698;10.078;2022-11-12T07:20:11;102797.72;;;9.09;100.00
15487;BME280;7845;53.698;10.078;2022-11-12T07:22:37;102813.16;;;9.03;100.00
15487;BME280;7845;53.698;10.078;2022-11-12T07:25:02;102810.75;;;9.09;100.00
15487;BME280;7845;53.698;10.078;2022-11-12T07:27:29;102800.63;;;9.18;100.00
15487;BME280;7845;53.698;10.078;2022-11-12T07:29:55;102801.78;;;9.28;100.00
15487;BME280;7845;53.698;10.078;2022-11-12T07:32:20;102814.19;;;9.36;100.00
15487;BME280;7845;53.698;10.078;2022-11-12T07:34:46;102809.09;;;9.41;100.00
15487;BME280;7845;53.698;10.078;2022-11-12T07:37:11;102820.59;;;9.48;100.00
15487;BME280;7845;53.698;10.078;2022-11-12T07:39:37;102823.38;;;9.52;100.00
15487;BME280;7845;53.698;10.078;2022-11-12T07:42:02;102816.47;;;9.54;100.00
15487;BME280;7845;53.698;10.078;2022-11-12T07:44:28;102815.75;;;9.60;100.00
15487;BME280;7845;53.698;10.078;2022-11-12T07:46:53;102815.56;;;9.54;100.00
15487;BME280;7845;53.698;10.078;2022-11-12T07:49:18;102816.56;;;9.57;100.00
15487;BME280;7845;53.698;10.078;2022-11-12T07:51:43;102815.66;;;9.57;100.00
15487;BME280;7845;53.698;10.078;2022-11-12T07:54:09;102808.00;;;9.61;100.00
15487;BME280;7845;53.698;10.078;2022-11-12T07:56:34;102802.91;;;9.66;100.00
15487;BME280;7845;53.698;10.078;2022-11-12T07:59:00;102805.47;;;9.64;100.00
15487;BME280;7845;53.698;10.078;2022-11-12T08:01:36;102814.88;;;9.59;100.00
15487;BME280;7845;53.698;10.078;2022-11-12T08:04:05;102825.25;;;9.58;100.00
15487;BME280;7845;53.698;10.078;2022-11-12T08:06:32;102825.88;;;9.49;100.00
15487;BME280;7845;53.698;10.078;2022-11-12T08:09:00;102830.22;;;9.50;100.00
15487;BME280;7845;53.698;10.078;2022-11-12T08:11:26;102829.50;;;9.54;100.00
15487;BME280;7845;53.698;10.078;2022-11-12T08:13:51;102823.47;;;9.57;100.00
15487;BME280;7845;53.698;10.078;2022-11-12T08:16:17;102824.56;;;9.63;100.00
15487;BME280;7845;53.698;10.078;2022-11-12T08:18:43;102838.25;;;9.56;100.00
15487;BME280;7845;53.698;10.078;2022-11-12T08:21:11;102835.69;;;9.58;100.00
15487;BME280;7845;53.698;10.078;2022-11-12T08:23:37;102822.84;;;9.64;100.00
15487;BME280;7845;53.698;10.078;2022-11-12T08:26:05;102816.94;;;9.71;100.00
15487;BME280;7845;53.698;10.078;2022-11-12T08:28:32;102834.34;;;9.70;100.00
15487;BME280;7845;53.698;10.078;2022-11-12T08:31:06;102828.34;;;9.74;100.00
15487;BME280;7845;53.698;10.078;2022-11-12T08:33:33;102812.94;;;9.82;100.00
15487;BME280;7845;53.698;10.078;2022-11-12T08:36:03;102823.47;;;9.86;100.00
15487;BME280;7845;53.698;10.078;2022-11-12T08:38:29;102831.28;;;9.85;100.00
15487;BME280;7845;53.698;10.078;2022-11-12T08:41:02;102830.47;;;9.87;100.00
15487;BME280;7845;53.698;10.078;2022-11-12T08:43:28;102822.75;;;9.92;100.00
15487;BME280;7845;53.698;10.078;2022-11-12T08:45:53;102827.31;;;9.99;100.00
15487;BME280;7845;53.698;10.078;2022-11-12T08:48:18;102829.72;;;9.91;100.00
15487;BME280;7845;53.698;10.078;2022-11-12T08:50:44;102824.72;;;10.00;100.00
15487;BME280;7845;53.698;10.078;2022-11-12T08:53:11;102817.13;;;10.08;100.00
15487;BME280;7845;53.698;10.078;2022-11-12T08:55:37;102821.72;;;10.15;100.00
15487;BME280;7845;53.698;10.078;2022-11-12T08:58:04;102817.50;;;10.20;100.00
15487;BME280;7845;53.698;10.078;2022-11-12T09:00:32;102820.28;;;10.26;100.00
15487;BME280;7845;53.698;10.078;2022-11-12T09:03:02;102822.91;;;10.28;100.00
15487;BME280;7845;53.698;10.078;2022-11-12T09:05:28;102826.63;;;10.36;100.00
15487;BME280;7845;53.698;10.078;2022-11-12T09:10:22;102834.78;;;10.48;100.00
15487;BME280;7845;53.698;10.078;2022-11-12T09:12:51;102840.19;;;10.55;100.00
15487;BME280;7845;53.698;10.078;2022-11-12T09:15:17;102831.59;;;10.61;100.00
15487;BME280;7845;53.698;10.078;2022-11-12T09:17:43;102836.03;;;10.64;100.00
15487;BME280;7845;53.698;10.078;2022-11-12T09:20:15;102842.25;;;10.69;100.00
15487;BME280;7845;53.698;10.078;2022-11-12T09:22:40;102844.97;;;10.73;100.00
15487;BME280;7845;53.698;10.078;2022-11-12T09:25:06;102848.50;;;10.75;100.00
15487;BME280;7845;53.698;10.078;2022-11-12T09:27:31;102840.78;;;10.80;100.00
15487;BME280;7845;53.698;10.078;2022-11-12T09:29:59;102833.03;;;10.83;100.00
15487;BME280;7845;53.698;10.078;2022-11-12T09:32:24;102843.47;;;10.83;100.00
15487;BME280;7845;53.698;10.078;2022-11-12T09:34:50;102850.47;;;10.84;100.00
15487;BME280;7845;53.698;10.078;2022-11-12T09:37:15;102855.84;;;10.90;100.00
15487;BME280;7845;53.698;10.078;2022-11-12T09:39:40;102851.56;;;10.93;100.00
15487;BME280;7845;53.698;10.078;2022-11-12T09:42:08;102844.63;;;10.94;100.00
15487;BME280;7845;53.698;10.078;2022-11-12T09:44:37;102845.56;;;10.96;100.00
15487;BME280;7845;53.698;10.078;2022-11-12T09:47:11;102847.38;;;11.00;100.00
15487;BME280;7845;53.698;10.078;2022-11-12T09:49:43;102850.13;;;11.06;100.00
15487;BME280;7845;53.698;10.078;2022-11-12T09:52:20;102849.38;;;11.10;100.00
15487;BME280;7845;53.698;10.078;2022-11-12T09:54:52;102851.97;;;11.10;100.00
15487;BME280;7845;53.698;10.078;2022-11-12T09:57:21;102851.25;;;11.16;100.00
15487;BME280;7845;53.698;10.078;2022-11-12T09:59:48;102840.94;;;11.22;100.00
15487;BME280;7845;53.698;10.078;2022-11-12T10:02:57;102836.66;;;11.25;100.00
15487;BME280;7845;53.698;10.078;2022-11-12T10:05:16;102848.91;;;11.28;100.00
15487;BME280;7845;53.698;10.078;2022-11-12T10:07:47;102850.63;;;11.27;100.00
15487;BME280;7845;53.698;10.078;2022-11-12T10:15:36;102850.97;;;11.41;100.00
15487;BME280;7845;53.698;10.078;2022-11-12T10:18:34;102857.16;;;11.46;100.00
15487;BME280;7845;53.698;10.078;2022-11-12T10:21:17;102862.47;;;11.50;100.00
15487;BME280;7845;53.698;10.078;2022-11-12T10:23:52;102852.16;;;11.56;100.00
15487;BME280;7845;53.698;10.078;2022-11-12T10:26:21;102850.50;;;11.60;100.00
15487;BME280;7845;53.698;10.078;2022-11-12T10:29:11;102865.41;;;11.64;100.00
15487;BME280;7845;53.698;10.078;2022-11-12T10:31:38;102869.09;;;11.72;100.00
15487;BME280;7845;53.698;10.078;2022-11-12T10:34:22;102876.13;;;11.75;100.00
15487;BME280;7845;53.698;10.078;2022-11-12T10:36:55;102863.88;;;11.72;100.00
15487;BME280;7845;53.698;10.078;2022-11-12T10:39:43;102861.44;;;11.80;100.00
15487;BME280;7845;53.698;10.078;2022-11-12T10:42:13;102865.84;;;11.84;100.00
15487;BME280;7845;53.698;10.078;2022-11-12T10:44:39;102886.03;;;11.89;100.00
15487;BME280;7845;53.698;10.078;2022-11-12T10:52:35;102868.00;;;12.03;100.00
15487;BME280;7845;53.698;10.078;2022-11-12T10:55:22;102868.97;;;12.06;100.00
15487;BME280;7845;53.698;10.078;2022-11-12T11:00:35;102871.56;;;12.06;100.00
15487;BME280;7845;53.698;10.078;2022-11-12T11:03:04;102871.63;;;12.09;100.00
15487;BME280;7845;53.698;10.078;2022-11-12T11:07:56;102862.06;;;12.13;100.00
15487;BME280;7845;53.698;10.078;2022-11-12T11:10:32;102851.59;;;12.11;100.00
15487;BME280;7845;53.698;10.078;2022-11-12T11:13:15;102848.13;;;12.12;100.00
15487;BME280;7845;53.698;10.078;2022-11-12T11:16:00;102856.03;;;12.15;100.00
15487;BME280;7845;53.698;10.078;2022-11-12T11:18:34;102856.06;;;12.17;100.00
15487;BME280;7845;53.698;10.078;2022-11-12T11:24:17;102843.22;;;12.31;100.00
15487;BME280;7845;53.698;10.078;2022-11-12T11:27:29;102845.88;;;12.34;100.00
15487;BME280;7845;53.698;10.078;2022-11-12T11:30:00;102856.47;;;12.38;100.00
15487;BME280;7845;53.698;10.078;2022-11-12T11:35:38;102846.97;;;12.45;100.00
15487;BME280;7845;53.698;10.078;2022-11-12T11:43:55;102851.41;;;12.49;100.00
15487;BME280;7845;53.698;10.078;2022-11-12T11:46:48;102857.53;;;12.49;100.00
15487;BME280;7845;53.698;10.078;2022-11-12T11:49:36;102861.03;;;12.50;100.00
15487;BME280;7845;53.698;10.078;2022-11-12T11:52:20;102864.59;;;12.53;100.00
15487;BME280;7845;53.698;10.078;2022-11-12T11:55:16;102863.78;;;12.57;100.00
15487;BME280;7845;53.698;10.078;2022-11-12T11:58:17;102872.56;;;12.61;100.00
15487;BME280;7845;53.698;10.078;2022-11-12T12:03:44;102857.75;;;12.61;100.00
15487;BME280;7845;53.698;10.078;2022-11-12T12:06:27;102859.53;;;12.62;100.00
15487;BME280;7845;53.698;10.078;2022-11-12T12:17:02;102858.81;;;12.72;100.00
15487;BME280;7845;53.698;10.078;2022-11-12T12:19:44;102856.31;;;12.80;100.00
15487;BME280;7845;53.698;10.078;2022-11-12T12:22:14;102857.22;;;12.82;100.00
15487;BME280;7845;53.698;10.078;2022-11-12T12:24:52;102853.75;;;12.83;100.00
15487;BME280;7845;53.698;10.078;2022-11-12T12:27:25;102842.34;;;12.80;100.00
15487;BME280;7845;53.698;10.078;2022-11-12T12:29:58;102845.81;;;12.78;100.00
15487;BME280;7845;53.698;10.078;2022-11-12T12:32:32;102849.25;;;12.76;100.00
15487;BME280;7845;53.698;10.078;2022-11-12T12:35:12;102851.81;;;12.73;100.00
15487;BME280;7845;53.698;10.078;2022-11-12T12:37:48;102842.19;;;12.69;100.00
15487;BME280;7845;53.698;10.078;2022-11-12T12:40:25;102836.84;;;12.63;100.00
15487;BME280;7845;53.698;10.078;2022-11-12T12:45:44;102838.41;;;12.55;100.00
15487;BME280;7845;53.698;10.078;2022-11-12T12:48:38;102834.00;;;12.51;100.00
15487;BME280;7845;53.698;10.078;2022-11-12T12:51:04;102837.44;;;12.48;100.00
15487;BME280;7845;53.698;10.078;2022-11-12T12:53:35;102828.59;;;12.43;100.00
15487;BME280;7845;53.698;10.078;2022-11-12T12:56:03;102825.09;;;12.41;100.00
15487;BME280;7845;53.698;10.078;2022-11-12T12:58:45;102819.84;;;12.41;100.00
15487;BME280;7845;53.698;10.078;2022-11-12T13:03:59;102832.94;;;12.41;100.00
15487;BME280;7845;53.698;10.078;2022-11-12T13:06:31;102827.72;;;12.43;100.00
15487;BME280;7845;53.698;10.078;2022-11-12T13:09:05;102812.88;;;12.42;100.00
15487;BME280;7845;53.698;10.078;2022-11-12T13:16:57;102810.31;;;12.46;100.00
15487;BME280;7845;53.698;10.078;2022-11-12T13:19:27;102804.25;;;12.49;100.00
15487;BME280;7845;53.698;10.078;2022-11-12T13:32:43;102795.72;;;12.59;100.00
15487;BME280;7845;53.698;10.078;2022-11-12T13:37:46;102799.25;;;12.62;100.00
15487;BME280;7845;53.698;10.078;2022-11-12T13:40:22;102800.09;;;12.61;100.00
15487;BME280;7845;53.698;10.078;2022-11-12T13:42:49;102795.75;;;12.62;100.00
15487;BME280;7845;53.698;10.078;2022-11-12T13:45:19;102785.28;;;12.62;100.00
15487;BME280;7845;53.698;10.078;2022-11-12T13:47:46;102787.91;;;12.62;100.00
15487;BME280;7845;53.698;10.078;2022-11-12T13:50:16;102787.84;;;12.60;100.00
15487;BME280;7845;53.698;10.078;2022-11-12T13:52:42;102784.38;;;12.61;100.00
15487;BME280;7845;53.698;10.078;2022-11-12T13:55:14;102786.16;;;12.64;100.00
15487;BME280;7845;53.698;10.078;2022-11-12T13:57:39;102780.97;;;12.67;100.00
15487;BME280;7845;53.698;10.078;2022-11-12T14:03:04;102780.97;;;12.67;100.00